createdAt,value
2023-04-16T00:01:05.325Z,1.73
2023-04-16T00:03:33.667Z,2.28
2023-04-16T00:06:01.837Z,1.70
2023-04-16T00:08:29.724Z,1.45
2023-04-16T00:10:57.646Z,2.25
2023-04-16T00:13:35.703Z,2.42
2023-04-16T00:16:05.298Z,2.17
2023-04-16T00:18:33.451Z,2.42
2023-04-16T00:21:01.811Z,1.95
2023-04-16T00:23:29.766Z,1.65
2023-04-16T00:26:00.000Z,1.80
2023-04-16T00:28:28.332Z,1.88
2023-04-16T00:30:56.481Z,1.40
2023-04-16T00:33:25.865Z,4.15
2023-04-16T00:35:53.810Z,2.60
2023-04-16T00:38:21.711Z,1.92
2023-04-16T00:40:49.673Z,1.90
2023-04-16T00:43:23.183Z,1.70
2023-04-16T00:45:51.694Z,2.20
2023-04-16T00:48:21.642Z,1.70
2023-04-16T00:50:51.062Z,1.58
2023-04-16T00:53:18.996Z,1.55
2023-04-16T00:55:46.966Z,1.77
2023-04-16T00:58:14.825Z,4.00
2023-04-16T01:00:42.698Z,2.47
2023-04-16T01:03:13.867Z,2.25
2023-04-16T01:05:42.004Z,1.90
2023-04-16T01:08:17.239Z,2.22
2023-04-16T01:10:45.187Z,1.40
2023-04-16T01:13:13.167Z,2.08
2023-04-16T01:15:41.246Z,1.35
2023-04-16T01:18:15.839Z,1.10
2023-04-16T01:20:45.452Z,2.47
2023-04-16T01:23:13.378Z,1.33
2023-04-16T01:25:41.363Z,2.45
2023-04-16T01:28:13.540Z,0.90
2023-04-16T01:30:41.595Z,1.33
2023-04-16T01:33:20.582Z,1.90
2023-04-16T01:35:50.175Z,1.48
2023-04-16T01:38:18.410Z,1.80
2023-04-16T01:40:47.281Z,1.50
2023-04-16T01:43:15.755Z,1.30
2023-04-16T01:45:44.315Z,3.17
2023-04-16T01:48:15.473Z,2.50
2023-04-16T01:50:43.564Z,1.35
2023-04-16T01:53:13.420Z,4.20
2023-04-16T01:55:41.397Z,1.70
2023-04-16T01:58:11.081Z,1.88
2023-04-16T02:00:40.774Z,2.55
2023-04-16T02:03:09.283Z,1.75
2023-04-16T02:05:37.947Z,2.10
2023-04-16T02:08:06.759Z,2.20
2023-04-16T02:10:36.678Z,3.00
2023-04-16T02:13:05.226Z,1.92
2023-04-16T02:15:37.116Z,1.98
2023-04-16T02:18:05.688Z,1.70
2023-04-16T02:20:38.077Z,1.88
2023-04-16T02:23:05.958Z,2.55
2023-04-16T02:25:40.682Z,3.33
2023-04-16T02:28:10.105Z,2.10
2023-04-16T02:30:42.358Z,2.70
2023-04-16T02:33:13.058Z,2.35
2023-04-16T02:35:50.467Z,1.35
2023-04-16T02:38:20.192Z,2.53
2023-04-16T02:40:51.120Z,2.05
2023-04-16T02:43:19.505Z,3.15
2023-04-16T02:45:47.815Z,2.22
2023-04-16T02:48:16.216Z,4.10
2023-04-16T02:50:44.356Z,3.30
2023-04-16T02:53:12.455Z,2.80
2023-04-16T02:55:40.892Z,3.40
2023-04-16T02:58:11.128Z,3.92
2023-04-16T03:00:40.122Z,2.90
2023-04-16T03:03:08.614Z,3.15
2023-04-16T03:05:38.512Z,2.75
2023-04-16T03:08:08.929Z,3.60
2023-04-16T03:10:38.024Z,3.63
2023-04-16T03:13:06.807Z,2.95
2023-04-16T03:15:38.558Z,3.88
2023-04-16T03:18:07.016Z,2.45
2023-04-16T03:20:35.029Z,2.97
2023-04-16T03:23:02.980Z,4.03
2023-04-16T03:25:31.110Z,2.70
2023-04-16T03:27:59.496Z,3.50
2023-04-16T03:30:30.648Z,3.17
2023-04-16T03:33:00.015Z,2.60
2023-04-16T03:35:28.057Z,3.78
2023-04-16T03:37:56.054Z,3.47
2023-04-16T03:40:25.377Z,3.17
2023-04-16T03:42:54.245Z,3.35
2023-04-16T03:45:22.808Z,4.05
2023-04-16T03:47:53.042Z,3.55
2023-04-16T03:50:25.783Z,3.03
2023-04-16T03:52:54.153Z,3.60
2023-04-16T03:55:22.481Z,3.17
2023-04-16T03:57:50.707Z,2.20
2023-04-16T04:00:19.769Z,3.03
2023-04-16T04:03:02.022Z,4.90
2023-04-16T04:05:31.959Z,2.70
2023-04-16T04:08:00.622Z,4.25
2023-04-16T04:10:33.394Z,3.28
2023-04-16T04:13:02.755Z,3.25
2023-04-16T04:15:31.101Z,2.60
2023-04-16T04:17:59.665Z,3.25
2023-04-16T04:20:28.224Z,3.55
2023-04-16T04:22:57.838Z,3.97
2023-04-16T04:25:27.534Z,4.07
2023-04-16T04:27:55.709Z,3.17
2023-04-16T04:30:23.827Z,4.47
2023-04-16T04:32:51.917Z,4.28
2023-04-16T04:35:20.168Z,2.17
2023-04-16T04:37:49.479Z,2.10
2023-04-16T04:40:22.242Z,5.18
2023-04-16T04:42:50.482Z,2.83
2023-04-16T04:45:19.275Z,2.70
2023-04-16T04:47:47.784Z,4.20
2023-04-16T04:50:17.179Z,3.13
2023-04-16T04:52:45.378Z,2.53
2023-04-16T04:55:15.811Z,2.97
2023-04-16T04:57:45.274Z,3.40
2023-04-16T05:00:14.462Z,2.97
2023-04-16T05:02:50.307Z,3.17
2023-04-16T05:05:18.701Z,3.83
2023-04-16T05:07:47.043Z,3.95
2023-04-16T05:10:15.918Z,2.63
2023-04-16T05:12:46.662Z,2.67
2023-04-16T05:15:16.557Z,3.38
2023-04-16T05:17:44.616Z,3.00
2023-04-16T05:20:13.057Z,2.25
2023-04-16T05:22:44.124Z,3.92
2023-04-16T05:25:12.219Z,4.28
2023-04-16T05:27:40.696Z,2.75
2023-04-16T05:30:12.357Z,4.43
2023-04-16T05:32:41.502Z,4.50
2023-04-16T05:35:11.107Z,3.90
2023-04-16T05:37:39.204Z,4.93
2023-04-16T05:40:08.832Z,5.00
2023-04-16T05:42:37.057Z,5.30
2023-04-16T05:45:06.361Z,4.68
2023-04-16T05:47:36.021Z,3.88
2023-04-16T05:50:04.196Z,4.50
2023-04-16T05:52:32.473Z,3.50
2023-04-16T05:55:02.044Z,3.38
2023-04-16T05:57:30.602Z,3.92
2023-04-16T05:59:58.995Z,3.05
2023-04-16T06:02:27.394Z,3.03
2023-04-16T06:04:57.253Z,2.88
2023-04-16T06:07:25.966Z,3.65
2023-04-16T06:09:54.282Z,3.53
2023-04-16T06:12:22.597Z,3.92
2023-04-16T06:14:50.907Z,4.68
2023-04-16T06:17:19.374Z,4.07
2023-04-16T06:19:47.441Z,3.80
2023-04-16T06:22:17.074Z,5.05
2023-04-16T06:24:45.288Z,4.22
2023-04-16T06:27:13.490Z,4.93
2023-04-16T06:29:42.048Z,4.45
2023-04-16T06:32:10.232Z,4.82
2023-04-16T06:34:39.362Z,2.70
2023-04-16T06:37:10.369Z,3.95
2023-04-16T06:39:40.308Z,5.10
2023-04-16T06:42:08.383Z,2.92
2023-04-16T06:44:37.143Z,3.22
2023-04-16T06:47:05.604Z,3.38
2023-04-16T06:49:33.635Z,3.70
2023-04-16T06:52:03.315Z,4.95
2023-04-16T06:54:32.761Z,3.33
2023-04-16T06:57:02.338Z,3.55
2023-04-16T06:59:30.475Z,3.35
2023-04-16T07:01:58.685Z,3.30
2023-04-16T07:04:27.261Z,3.47
2023-04-16T07:06:55.471Z,4.00
2023-04-16T07:09:23.829Z,3.67
2023-04-16T07:11:51.887Z,5.00
2023-04-16T07:14:21.256Z,2.38
2023-04-16T07:16:49.371Z,3.97
2023-04-16T07:19:17.490Z,3.08
2023-04-16T07:21:46.444Z,2.47
2023-04-16T07:24:14.868Z,4.28
2023-04-16T07:26:42.928Z,2.67
2023-04-16T07:29:11.375Z,2.95
2023-04-16T07:31:41.486Z,3.83
2023-04-16T07:34:09.787Z,2.50
2023-04-16T07:36:39.331Z,2.90
2023-04-16T07:39:07.540Z,2.80
2023-04-16T07:41:35.951Z,3.33
2023-04-16T07:44:05.665Z,3.15
2023-04-16T07:46:45.699Z,4.13
2023-04-16T07:49:16.327Z,2.63
2023-04-16T07:51:44.272Z,3.40
2023-04-16T07:54:14.937Z,2.92
2023-04-16T07:56:42.841Z,3.75
2023-04-16T07:59:21.647Z,4.13
2023-04-16T08:01:50.343Z,3.92
2023-04-16T08:04:24.516Z,4.20
2023-04-16T08:06:53.260Z,2.75
2023-04-16T08:09:21.799Z,2.28
2023-04-16T08:11:50.837Z,2.15
2023-04-16T08:14:19.931Z,2.88
2023-04-16T08:16:47.976Z,4.32
2023-04-16T08:19:15.906Z,3.25
2023-04-16T08:21:45.351Z,2.70
2023-04-16T08:24:13.308Z,2.50
2023-04-16T08:26:41.576Z,4.05
2023-04-16T08:29:14.865Z,3.95
2023-04-16T08:31:45.991Z,2.97
2023-04-16T08:34:14.207Z,2.65
2023-04-16T08:36:42.500Z,4.25
2023-04-16T08:39:14.992Z,3.20
2023-04-16T08:41:46.572Z,3.67
2023-04-16T08:44:22.265Z,2.40
2023-04-16T08:46:54.761Z,4.28
2023-04-16T08:49:23.531Z,1.70
2023-04-16T08:51:53.537Z,2.22
2023-04-16T08:54:35.767Z,2.85
2023-04-16T08:57:06.929Z,1.85
2023-04-16T08:59:35.329Z,1.95
2023-04-16T09:02:06.024Z,2.47
2023-04-16T09:04:40.804Z,3.22
2023-04-16T09:07:10.296Z,2.25
2023-04-16T09:09:40.989Z,2.35
2023-04-16T09:12:11.358Z,2.30
2023-04-16T09:14:41.900Z,2.78
2023-04-16T09:17:11.991Z,4.22
2023-04-16T09:19:40.241Z,3.95
2023-04-16T09:22:08.161Z,2.75
2023-04-16T09:24:38.352Z,3.95
2023-04-16T09:27:09.256Z,1.80
2023-04-16T09:29:40.112Z,2.58
2023-04-16T09:32:11.449Z,2.45
2023-04-16T09:34:59.402Z,2.55
2023-04-16T09:37:31.846Z,2.70
2023-04-16T09:40:01.264Z,2.80
2023-04-16T09:42:32.278Z,3.17
2023-04-16T09:45:02.146Z,3.97
2023-04-16T09:47:41.812Z,3.15
2023-04-16T09:50:12.692Z,2.67
2023-04-16T09:52:41.233Z,2.75
2023-04-16T09:55:09.778Z,3.50
2023-04-16T09:57:41.016Z,3.15
2023-04-16T10:00:12.870Z,3.22
2023-04-16T10:02:42.833Z,2.78
2023-04-16T10:05:16.701Z,3.60
2023-04-16T10:07:44.705Z,2.67
2023-04-16T10:10:12.739Z,3.83
2023-04-16T10:12:43.562Z,3.45
2023-04-16T10:15:15.054Z,3.15
2023-04-16T10:17:44.051Z,1.90
2023-04-16T10:20:12.436Z,3.55
2023-04-16T10:22:40.508Z,5.32
2023-04-16T10:25:09.600Z,5.63
2023-04-16T10:27:39.162Z,5.00
2023-04-16T10:30:16.573Z,3.35
2023-04-16T10:32:45.824Z,2.53
2023-04-16T10:35:21.730Z,4.00
2023-04-16T10:37:51.491Z,4.38
2023-04-16T10:40:26.920Z,2.67
2023-04-16T10:42:56.412Z,3.88
2023-04-16T10:45:31.952Z,3.92
2023-04-16T10:48:00.179Z,4.18
2023-04-16T10:50:36.902Z,3.85
2023-04-16T10:53:21.847Z,2.95
2023-04-16T10:56:00.532Z,3.55
2023-04-16T10:58:29.024Z,4.20
2023-04-16T11:01:01.225Z,3.35
2023-04-16T11:03:32.845Z,2.80
2023-04-16T11:06:16.634Z,2.40
2023-04-16T11:08:54.648Z,5.82
2023-04-16T11:11:39.791Z,3.55
2023-04-16T11:14:09.287Z,2.60
2023-04-16T11:16:42.187Z,3.40
2023-04-16T11:19:17.431Z,2.60
2023-04-16T11:21:46.290Z,2.72
2023-04-16T11:24:14.207Z,2.60
2023-04-16T11:26:43.303Z,3.25
2023-04-16T11:29:15.894Z,2.33
2023-04-16T11:31:51.776Z,3.42
2023-04-16T11:34:22.185Z,3.67
2023-04-16T11:36:53.573Z,2.50
2023-04-16T11:39:21.856Z,3.47
2023-04-16T11:41:52.261Z,2.20
2023-04-16T11:44:21.796Z,3.40
2023-04-16T11:46:51.806Z,2.38
2023-04-16T11:49:28.433Z,5.03
2023-04-16T11:51:57.905Z,2.47
2023-04-16T11:54:28.952Z,3.35
2023-04-16T11:56:56.864Z,3.92
2023-04-16T11:59:28.080Z,3.40
2023-04-16T12:01:57.515Z,3.83
2023-04-16T12:04:27.403Z,2.70
2023-04-16T12:07:09.276Z,3.58
2023-04-16T12:09:40.122Z,2.92
2023-04-16T12:12:27.140Z,4.57
2023-04-16T12:14:58.490Z,3.70
2023-04-16T12:17:27.845Z,4.38
2023-04-16T12:19:59.061Z,5.15
2023-04-16T12:22:31.373Z,4.13
2023-04-16T12:25:04.122Z,3.75
2023-04-16T12:27:52.218Z,3.40
2023-04-16T12:30:22.972Z,4.03
2023-04-16T12:32:53.540Z,3.75
2023-04-16T12:35:31.589Z,3.95
2023-04-16T12:37:59.661Z,4.25
2023-04-16T12:40:27.684Z,5.10
2023-04-16T12:42:55.857Z,4.57
2023-04-16T12:45:23.830Z,3.65
2023-04-16T12:47:54.752Z,4.05
2023-04-16T12:50:22.943Z,4.03
2023-04-16T12:52:51.051Z,4.50
2023-04-16T12:55:23.138Z,4.10
2023-04-16T12:57:52.748Z,4.82
2023-04-16T13:00:21.183Z,3.75
2023-04-16T13:02:51.859Z,4.20
2023-04-16T13:05:21.353Z,4.00
2023-04-16T13:07:49.351Z,3.13
2023-04-16T13:10:17.629Z,3.38
2023-04-16T13:12:48.930Z,5.05
2023-04-16T13:15:16.950Z,4.75
2023-04-16T13:17:45.059Z,3.80
2023-04-16T13:20:13.153Z,3.83
2023-04-16T13:22:42.556Z,4.38
2023-04-16T13:25:10.968Z,4.15
2023-04-16T13:27:39.088Z,5.47
2023-04-16T13:30:08.619Z,4.00
2023-04-16T13:32:37.009Z,4.55
2023-04-16T13:35:05.404Z,4.45
2023-04-16T13:37:33.338Z,4.47
2023-04-16T13:40:02.660Z,4.82
2023-04-16T13:42:30.614Z,3.58
2023-04-16T13:44:58.890Z,4.75
2023-04-16T13:47:26.926Z,3.45
2023-04-16T13:49:54.858Z,3.03
2023-04-16T13:52:22.849Z,4.30
2023-04-16T13:54:54.137Z,3.22
2023-04-16T13:57:26.085Z,4.35
2023-04-16T13:59:58.217Z,6.07
2023-04-16T14:02:26.619Z,5.85
2023-04-16T14:04:57.448Z,3.63
2023-04-16T14:07:27.208Z,6.47
2023-04-16T14:09:55.501Z,3.35
2023-04-16T14:12:25.114Z,4.57
2023-04-16T14:14:53.678Z,2.88
2023-04-16T14:17:24.737Z,5.95
2023-04-16T14:19:54.924Z,5.28
2023-04-16T14:22:23.159Z,3.85
2023-04-16T14:24:57.432Z,3.83
2023-04-16T14:27:29.042Z,3.33
2023-04-16T14:29:57.589Z,3.38
2023-04-16T14:32:25.604Z,5.95
2023-04-16T14:34:53.633Z,3.80
2023-04-16T14:37:21.723Z,3.05
2023-04-16T14:39:52.517Z,3.72
2023-04-16T14:42:20.510Z,5.65
2023-04-16T14:44:55.013Z,3.47
2023-04-16T14:47:25.804Z,4.15
2023-04-16T14:49:53.891Z,4.35
2023-04-16T14:52:22.940Z,4.15
2023-04-16T14:54:52.143Z,3.30
2023-04-16T14:57:20.116Z,3.58
2023-04-16T14:59:49.575Z,4.25
2023-04-16T15:02:21.365Z,4.30
2023-04-16T15:04:52.061Z,5.13
2023-04-16T15:07:22.201Z,4.00
2023-04-16T15:09:50.960Z,4.45
2023-04-16T15:12:19.226Z,5.00
2023-04-16T15:14:48.662Z,3.40
2023-04-16T15:17:20.398Z,4.28
2023-04-16T15:19:48.682Z,4.68
2023-04-16T15:22:16.772Z,4.97
2023-04-16T15:24:44.774Z,5.57
2023-04-16T15:27:16.225Z,4.70
2023-04-16T15:29:46.409Z,4.97
2023-04-16T15:32:17.431Z,6.43
2023-04-16T15:34:46.470Z,4.32
2023-04-16T15:37:19.351Z,3.53
2023-04-16T15:39:47.280Z,5.60
2023-04-16T15:42:15.699Z,6.55
2023-04-16T15:44:44.731Z,4.20
2023-04-16T15:47:14.213Z,5.43
2023-04-16T15:49:48.831Z,4.10
2023-04-16T15:52:20.399Z,4.82
2023-04-16T15:54:48.467Z,4.32
2023-04-16T15:57:16.482Z,5.47
2023-04-16T15:59:50.260Z,4.03
2023-04-16T16:02:33.780Z,3.95
2023-04-16T16:05:03.270Z,5.88
2023-04-16T16:07:31.317Z,3.58
2023-04-16T16:10:01.934Z,5.05
2023-04-16T16:12:31.106Z,4.50
2023-04-16T16:14:59.013Z,4.75
2023-04-16T16:17:27.157Z,5.75
2023-04-16T16:19:57.648Z,3.65
2023-04-16T16:22:27.390Z,3.92
2023-04-16T16:24:57.522Z,3.25
2023-04-16T16:27:25.529Z,2.97
2023-04-16T16:29:54.461Z,4.65
2023-04-16T16:32:22.329Z,4.40
2023-04-16T16:34:53.347Z,4.53
2023-04-16T16:37:21.314Z,3.35
2023-04-16T16:39:50.902Z,2.63
2023-04-16T16:42:18.984Z,4.55
2023-04-16T16:44:48.823Z,4.72
2023-04-16T16:47:16.825Z,3.92
2023-04-16T16:49:44.988Z,3.78
2023-04-16T16:52:12.953Z,4.35
2023-04-16T16:54:43.110Z,4.85
2023-04-16T16:57:13.622Z,4.40
2023-04-16T16:59:41.572Z,4.60
2023-04-16T17:02:09.541Z,6.97
2023-04-16T17:04:38.532Z,4.80
2023-04-16T17:07:06.792Z,6.47
2023-04-16T17:09:34.787Z,7.00
2023-04-16T17:12:02.706Z,20.85
2023-04-16T17:14:32.434Z,8.63
2023-04-16T17:17:00.544Z,10.27
2023-04-16T17:19:28.519Z,11.00
2023-04-16T17:21:59.072Z,11.25
2023-04-16T17:24:26.931Z,15.10
2023-04-16T17:26:55.864Z,10.27
2023-04-16T17:29:26.155Z,12.75
2023-04-16T17:31:55.607Z,10.30
2023-04-16T17:34:23.866Z,10.75
2023-04-16T17:36:51.766Z,11.38
2023-04-16T17:39:20.667Z,11.95
2023-04-16T17:41:54.019Z,9.38
2023-04-16T17:44:22.954Z,8.65
2023-04-16T17:46:50.844Z,10.68
2023-04-16T17:49:20.134Z,11.23
2023-04-16T17:51:48.901Z,14.02
2023-04-16T17:54:16.788Z,10.57
2023-04-16T17:56:45.374Z,9.57
2023-04-16T17:59:13.431Z,11.43
2023-04-16T18:01:41.643Z,9.52
2023-04-16T18:04:10.731Z,11.40
2023-04-16T18:06:40.385Z,9.63
2023-04-16T18:09:08.410Z,9.80
2023-04-16T18:11:36.445Z,9.23
2023-04-16T18:14:04.310Z,8.52
2023-04-16T18:16:32.247Z,9.00
2023-04-16T18:19:00.307Z,8.98
2023-04-16T18:21:29.836Z,11.10
2023-04-16T18:24:00.835Z,7.75
2023-04-16T18:26:29.966Z,6.53
2023-04-16T18:28:58.074Z,10.55
2023-04-16T18:31:26.902Z,9.80
2023-04-16T18:33:58.156Z,9.23
2023-04-16T18:36:27.271Z,8.80
2023-04-16T18:41:28.302Z,7.00
2023-04-16T18:43:56.318Z,10.25
2023-04-16T18:46:25.539Z,8.13
2023-04-16T18:48:53.685Z,9.65
2023-04-16T18:51:21.716Z,9.25
2023-04-16T18:53:49.669Z,8.93
2023-04-16T18:56:17.655Z,7.57
2023-04-16T18:58:47.779Z,10.50
2023-04-16T19:01:16.662Z,7.38
2023-04-16T19:03:45.470Z,10.52
2023-04-16T19:06:13.534Z,7.85
2023-04-16T19:08:44.715Z,7.78
2023-04-16T19:11:12.716Z,8.80
2023-04-16T19:13:41.169Z,10.02
2023-04-16T19:16:13.143Z,9.50
2023-04-16T19:18:41.721Z,7.30
2023-04-16T19:21:10.943Z,9.15
2023-04-16T19:23:39.141Z,8.48
2023-04-16T19:26:09.239Z,9.02
2023-04-16T19:28:39.029Z,11.30
2023-04-16T19:31:07.190Z,6.47
2023-04-16T19:33:36.655Z,6.75
2023-04-16T19:36:04.672Z,7.78
2023-04-16T19:38:32.639Z,10.50
2023-04-16T19:41:00.568Z,9.18
2023-04-16T19:43:31.216Z,9.95
2023-04-16T19:46:05.217Z,8.52
2023-04-16T19:48:44.867Z,6.60
2023-04-16T19:51:12.874Z,8.55
2023-04-16T19:53:43.636Z,8.27
2023-04-16T19:56:12.357Z,7.57
2023-04-16T19:58:40.406Z,7.53
2023-04-16T20:01:10.170Z,8.98
2023-04-16T20:03:39.645Z,8.95
2023-04-16T20:06:07.929Z,9.20
2023-04-16T20:08:35.931Z,8.38
2023-04-16T20:11:03.890Z,6.80
2023-04-16T20:13:31.834Z,6.22
2023-04-16T20:16:01.074Z,9.07
2023-04-16T20:18:29.087Z,6.82
2023-04-16T20:20:58.678Z,10.80
2023-04-16T20:23:26.706Z,6.70
2023-04-16T20:25:54.642Z,10.20
2023-04-16T20:28:22.634Z,8.43
2023-04-16T20:30:51.075Z,6.63
2023-04-16T20:33:19.132Z,7.40
2023-04-16T20:35:47.384Z,6.22
2023-04-16T20:38:18.224Z,4.85
2023-04-16T20:40:47.076Z,7.40
2023-04-16T20:43:18.717Z,6.47
2023-04-16T20:45:46.604Z,8.07
2023-04-16T20:48:14.527Z,7.15
2023-04-16T20:50:42.474Z,6.18
2023-04-16T20:53:10.670Z,7.40
2023-04-16T20:55:40.107Z,8.57
2023-04-16T20:58:08.129Z,8.35
2023-04-16T21:00:36.088Z,8.68
2023-04-16T21:03:04.265Z,8.07
2023-04-16T21:05:33.770Z,8.30
2023-04-16T21:08:01.773Z,9.68
2023-04-16T21:10:29.687Z,7.05
2023-04-16T21:12:58.903Z,6.72
2023-04-16T21:15:26.885Z,6.97
2023-04-16T21:17:55.900Z,6.18
2023-04-16T21:20:23.890Z,6.82
2023-04-16T21:22:56.614Z,6.78
2023-04-16T21:25:24.745Z,6.63
2023-04-16T21:27:52.927Z,5.30
2023-04-16T21:30:22.678Z,7.57
2023-04-16T21:32:50.643Z,5.88
2023-04-16T21:35:18.632Z,6.35
2023-04-16T21:37:46.546Z,6.10
2023-04-16T21:40:14.728Z,7.38
2023-04-16T21:42:42.640Z,6.38
2023-04-16T21:45:11.401Z,7.78
2023-04-16T21:47:41.125Z,6.45
2023-04-16T21:50:10.058Z,6.97
2023-04-16T21:52:40.582Z,7.47
2023-04-16T21:55:10.249Z,8.43
2023-04-16T21:57:38.260Z,9.43
2023-04-16T22:00:12.193Z,9.85
2023-04-16T22:02:42.598Z,7.45
2023-04-16T22:05:11.600Z,5.43
2023-04-16T22:07:39.810Z,6.07
2023-04-16T22:10:09.549Z,5.97
2023-04-16T22:12:39.803Z,6.30
2023-04-16T22:15:10.254Z,6.72
2023-04-16T22:17:38.677Z,7.18
2023-04-16T22:20:12.148Z,6.78
2023-04-16T22:22:40.742Z,6.97
2023-04-16T22:25:09.668Z,6.78
2023-04-16T22:27:38.594Z,9.55
2023-04-16T22:30:09.171Z,6.05
2023-04-16T22:32:37.520Z,8.27
2023-04-16T22:35:06.431Z,7.53
2023-04-16T22:37:35.856Z,7.10
2023-04-16T22:40:07.015Z,4.95
2023-04-16T22:42:41.085Z,9.25
2023-04-16T22:45:11.148Z,6.00
2023-04-16T22:47:41.744Z,7.03
2023-04-16T22:50:10.856Z,7.07
2023-04-16T22:52:40.156Z,7.07
2023-04-16T22:55:11.591Z,6.90
2023-04-16T22:57:39.706Z,5.28
2023-04-16T23:00:15.810Z,7.07
2023-04-16T23:02:44.591Z,8.20
2023-04-16T23:05:12.885Z,7.53
2023-04-16T23:07:42.219Z,7.13
2023-04-16T23:10:10.546Z,5.30
2023-04-16T23:12:38.727Z,8.40
2023-04-16T23:15:07.886Z,9.75
2023-04-16T23:17:35.985Z,6.75
2023-04-16T23:20:07.514Z,7.30
2023-04-16T23:22:35.937Z,5.95
2023-04-16T23:25:08.831Z,6.70
2023-04-16T23:27:36.899Z,6.85
2023-04-16T23:30:05.784Z,7.15
2023-04-16T23:32:34.786Z,6.32
2023-04-16T23:35:03.131Z,8.57
2023-04-16T23:37:31.157Z,8.50
2023-04-16T23:39:59.172Z,6.45
2023-04-16T23:42:28.738Z,7.15
2023-04-16T23:44:56.792Z,8.68
2023-04-16T23:47:24.852Z,7.13
2023-04-16T23:49:52.910Z,8.07
2023-04-16T23:52:21.091Z,6.70
2023-04-16T23:54:49.070Z,5.70
2023-04-16T23:57:17.217Z,7.88
2023-04-16T23:59:46.640Z,7.80
